Time;durP1;ratioP1;P1;durP2;ratioP2;P2;SDS_P1;SDS_P2;PMS_P1;PMS_P2;Temp;Humidity;BMP_temperature;BMP_pressure;BME280_temperature;BME280_humidity;BME280_pressure;Samples;Min_cycle;Max_cycle;Signal;HPM_P1;HPM_P2
2023/12/24 00:01:31;;;;;;;1.70;1.60;;;10.20;99.90;;;;;;10465380;28;20475;-79
2023/12/24 00:06:34;;;;;;;1.50;1.50;;;10.10;99.90;;;;;;10463549;28;20217;-80
2023/12/24 00:11:37;;;;;;;1.43;1.40;;;10.10;99.90;;;;;;10461422;28;20189;-80
2023/12/24 00:16:43;;;;;;;1.20;1.20;;;10.10;99.90;;;;;;10457126;28;20216;-80
2023/12/24 00:21:47;;;;;;;1.23;1.20;;;10.10;99.90;;;;;;10456486;28;20599;-79
2023/12/24 00:26:49;;;;;;;1.53;1.43;;;10.10;99.90;;;;;;10527731;22;20309;-79
2023/12/24 00:31:51;;;;;;;1.40;1.40;;;10.10;99.90;;;;;;10514800;28;20204;-81
2023/12/24 00:36:55;;;;;;;1.50;1.50;;;10.10;99.90;;;;;;10479755;28;20213;-80
2023/12/24 00:41:58;;;;;;;1.10;1.10;;;10.20;99.90;;;;;;10518922;28;20219;-82
2023/12/24 00:47:00;;;;;;;1.20;1.20;;;10.20;99.90;;;;;;10480900;28;20212;-82
2023/12/24 00:52:04;;;;;;;1.53;1.50;;;10.20;99.90;;;;;;10520168;28;20551;-80
2023/12/24 00:57:06;;;;;;;1.10;1.10;;;10.20;99.90;;;;;;10481093;28;20208;-82
2023/12/24 01:02:08;;;;;;;1.30;1.20;;;10.20;99.90;;;;;;10539009;28;20224;-80
2023/12/24 01:07:13;;;;;;;1.40;1.30;;;10.20;99.90;;;;;;10482348;28;20636;-80
2023/12/24 01:12:16;;;;;;;1.10;1.10;;;10.20;99.90;;;;;;10440459;28;20216;-80
2023/12/24 01:17:18;;;;;;;2.50;1.80;;;10.10;99.90;;;;;;10537508;28;20222;-79
2023/12/24 01:22:22;;;;;;;1.37;1.20;;;10.10;99.90;;;;;;10496695;28;20216;-80
2023/12/24 01:27:27;;;;;;;1.00;1.00;;;10.10;99.90;;;;;;10444372;28;20221;-81
2023/12/24 01:32:29;;;;;;;1.10;1.10;;;10.00;99.90;;;;;;10463168;28;20193;-80
2023/12/24 01:37:33;;;;;;;1.17;1.17;;;10.00;99.90;;;;;;10443809;28;20639;-80
2023/12/24 01:42:35;;;;;;;1.20;1.20;;;10.10;99.90;;;;;;10527183;28;20215;-80
2023/12/24 01:47:38;;;;;;;1.33;1.30;;;10.20;99.90;;;;;;10503645;28;20213;-82
2023/12/24 01:52:42;;;;;;;1.97;1.60;;;10.20;99.90;;;;;;10529939;28;20192;-80
2023/12/24 01:57:44;;;;;;;2.10;2.00;;;10.30;99.90;;;;;;10484220;28;20216;-80
2023/12/24 02:02:49;;;;;;;4.10;1.20;;;10.30;99.90;;;;;;10518891;28;20220;-78
2023/12/24 02:07:53;;;;;;;1.20;1.20;;;10.20;99.90;;;;;;10483399;28;20216;-80
2023/12/24 02:12:55;;;;;;;1.23;1.13;;;10.20;99.90;;;;;;10501572;28;20193;-79
2023/12/24 02:17:59;;;;;;;1.43;1.33;;;10.20;99.90;;;;;;10539450;28;20216;-80
2023/12/24 02:23:02;;;;;;;3.37;3.07;;;10.30;99.90;;;;;;10484886;28;20208;-79
2023/12/24 02:28:15;;;;;;;2.40;1.50;;;10.30;99.90;;;;;;10521329;28;20191;-80
2023/12/24 02:33:19;;;;;;;1.50;1.40;;;10.30;99.90;;;;;;10501674;28;20200;-81
2023/12/24 02:38:23;;;;;;;1.77;1.40;;;10.30;99.90;;;;;;10539450;28;20196;-79
2023/12/24 02:43:25;;;;;;;1.37;1.27;;;10.30;99.90;;;;;;10491974;28;20220;-80
2023/12/24 02:48:27;;;;;;;1.47;1.37;;;10.30;99.90;;;;;;10520778;28;20195;-80
2023/12/24 02:53:31;;;;;;;2.00;1.30;;;10.30;99.90;;;;;;10501143;28;20326;-80
2023/12/24 02:58:33;;;;;;;2.00;1.90;;;10.40;99.90;;;;;;10520233;28;20269;-80
2023/12/24 03:03:36;;;;;;;1.70;1.60;;;10.30;99.90;;;;;;10501037;28;20212;-79
2023/12/24 03:08:39;;;;;;;1.30;1.30;;;10.30;99.90;;;;;;10537088;28;20611;-80
2023/12/24 03:13:42;;;;;;;1.47;1.37;;;10.30;99.90;;;;;;10484411;28;20212;-79
2023/12/24 03:18:44;;;;;;;1.57;1.57;;;10.30;99.90;;;;;;10517717;28;20257;-80
2023/12/24 03:23:48;;;;;;;1.40;1.40;;;10.40;99.90;;;;;;10483441;28;20225;-80
2023/12/24 03:28:51;;;;;;;1.30;1.30;;;10.40;99.90;;;;;;10517026;28;20192;-80
2023/12/24 03:33:53;;;;;;;1.63;1.37;;;10.30;99.90;;;;;;10501636;28;20573;-80
2023/12/24 03:38:57;;;;;;;2.40;1.30;;;10.30;99.90;;;;;;10515841;28;20202;-80
2023/12/24 03:44:00;;;;;;;1.50;1.40;;;10.30;99.90;;;;;;10484817;28;20310;-78
2023/12/24 03:49:02;;;;;;;1.27;1.27;;;10.30;99.90;;;;;;10514890;28;20199;-80
2023/12/24 03:54:06;;;;;;;1.30;1.20;;;10.30;99.90;;;;;;10484685;28;20220;-80
2023/12/24 03:59:08;;;;;;;1.40;1.40;;;10.30;99.90;;;;;;10514553;28;20200;-81
2023/12/24 04:04:11;;;;;;;1.50;1.40;;;10.30;99.90;;;;;;10502665;28;20299;-80
2023/12/24 04:09:15;;;;;;;2.23;1.60;;;10.30;99.90;;;;;;10513000;28;20192;-81
2023/12/24 04:14:17;;;;;;;1.50;1.40;;;10.20;99.90;;;;;;10484544;28;20212;-80
2023/12/24 04:19:21;;;;;;;1.97;1.97;;;10.10;99.90;;;;;;10495195;28;20669;-80
2023/12/24 04:24:25;;;;;;;3.20;1.27;;;10.20;99.90;;;;;;10484888;28;20220;-81
2023/12/24 04:29:29;;;;;;;1.90;1.80;;;10.20;99.90;;;;;;10512362;28;20207;-81
2023/12/24 04:34:32;;;;;;;1.70;1.60;;;10.20;99.90;;;;;;10503646;28;20273;-80
2023/12/24 04:39:36;;;;;;;1.67;1.57;;;10.30;99.90;;;;;;10511328;28;20200;-80
2023/12/24 04:44:39;;;;;;;1.50;1.50;;;10.30;99.90;;;;;;10485942;28;20604;-81
2023/12/24 04:49:42;;;;;;;1.47;1.40;;;10.30;99.90;;;;;;10511316;28;20737;-81
2023/12/24 04:54:45;;;;;;;1.43;1.33;;;10.30;99.90;;;;;;10486156;28;20213;-81
2023/12/24 04:59:48;;;;;;;1.40;1.40;;;10.40;99.90;;;;;;10515577;28;20200;-80
2023/12/24 05:04:51;;;;;;;1.80;1.70;;;10.30;99.90;;;;;;10494339;28;20648;-81
2023/12/24 05:09:55;;;;;;;1.30;1.30;;;10.20;99.90;;;;;;10535830;28;20196;-80
2023/12/24 05:15:00;;;;;;;1.33;1.33;;;10.20;99.90;;;;;;10514177;28;20230;-81
2023/12/24 05:20:04;;;;;;;1.60;1.50;;;10.10;99.90;;;;;;10524296;28;20261;-80
2023/12/24 05:25:08;;;;;;;1.67;1.33;;;10.00;99.90;;;;;;10508168;28;20216;-79
2023/12/24 05:30:11;;;;;;;1.23;1.23;;;10.00;99.90;;;;;;10525321;28;20739;-80
2023/12/24 05:35:13;;;;;;;1.33;1.33;;;10.00;99.90;;;;;;10512403;28;20220;-83
2023/12/24 05:40:17;;;;;;;1.67;1.57;;;10.00;99.90;;;;;;10533811;28;20609;-80
2023/12/24 05:45:20;;;;;;;1.47;1.37;;;10.00;99.90;;;;;;10515307;28;20227;-81
2023/12/24 05:50:24;;;;;;;1.27;1.27;;;10.00;99.90;;;;;;10520431;28;20203;-80
2023/12/24 05:55:28;;;;;;;1.87;1.77;;;10.00;99.90;;;;;;10502126;28;20218;-79
2023/12/24 06:00:30;;;;;;;1.50;1.40;;;10.00;99.90;;;;;;10494905;28;20201;-79
2023/12/24 06:05:32;;;;;;;1.50;1.40;;;10.00;99.90;;;;;;10487322;28;20216;-80
2023/12/24 06:10:36;;;;;;;1.30;1.30;;;10.00;99.90;;;;;;10506098;28;20200;-80
2023/12/24 06:15:38;;;;;;;1.60;1.50;;;10.00;99.90;;;;;;10531072;28;20211;-80
2023/12/24 06:20:41;;;;;;;1.10;1.10;;;10.10;99.90;;;;;;10513630;28;20192;-83
2023/12/24 06:25:44;;;;;;;1.40;1.40;;;10.10;99.90;;;;;;10511677;22;20233;-81
2023/12/24 06:30:47;;;;;;;1.37;1.37;;;10.10;99.90;;;;;;10487359;28;20196;-79
2023/12/24 06:35:49;;;;;;;1.40;1.40;;;10.00;99.90;;;;;;10500749;28;20270;-79
2023/12/24 06:40:53;;;;;;;2.10;1.53;;;10.00;99.90;;;;;;10498778;28;20204;-80
2023/12/24 06:45:55;;;;;;;1.43;1.33;;;10.00;99.90;;;;;;10485286;28;20216;-80
2023/12/24 06:50:57;;;;;;;1.10;1.10;;;10.00;99.90;;;;;;10501170;28;20199;-79
2023/12/24 06:56:01;;;;;;;1.30;1.30;;;10.00;99.90;;;;;;10500533;28;20220;-79
2023/12/24 07:01:03;;;;;;;1.57;1.40;;;10.00;99.90;;;;;;10499643;28;20193;-79
2023/12/24 07:06:06;;;;;;;1.43;1.43;;;10.00;99.90;;;;;;10488092;28;20232;-79
2023/12/24 07:11:10;;;;;;;1.27;1.27;;;10.00;99.90;;;;;;10476518;28;20203;-79
2023/12/24 07:16:14;;;;;;;1.60;1.50;;;10.10;99.90;;;;;;10478006;28;20278;-79
2023/12/24 07:21:20;;;;;;;1.30;1.30;;;10.10;99.90;;;;;;10499589;28;20602;-80
2023/12/24 07:26:24;;;;;;;1.60;1.50;;;10.20;99.90;;;;;;10498687;28;20270;-79
2023/12/24 07:31:26;;;;;;;1.60;1.50;;;10.30;99.90;;;;;;10497580;28;20253;-79
2023/12/24 07:36:28;;;;;;;1.53;1.53;;;10.30;99.90;;;;;;10496346;28;20217;-79
2023/12/24 07:41:32;;;;;;;1.30;1.30;;;10.30;99.90;;;;;;10497026;28;20193;-80
2023/12/24 07:46:38;;;;;;;1.40;1.40;;;10.30;99.90;;;;;;10468577;28;20217;-79
2023/12/24 07:51:41;;;;;;;1.47;1.43;;;10.30;99.90;;;;;;10432062;28;20209;-79
2023/12/24 07:56:44;;;;;;;1.87;1.77;;;10.40;99.90;;;;;;10447130;28;20213;-78
2023/12/24 08:01:47;;;;;;;1.90;1.40;;;10.40;99.90;;;;;;10464911;28;20816;-78
2023/12/24 08:06:50;;;;;;;1.40;1.30;;;10.30;99.90;;;;;;10460355;28;20227;-79
2023/12/24 08:11:54;;;;;;;1.10;1.10;;;10.40;99.90;;;;;;10493925;28;20254;-79
2023/12/24 08:16:56;;;;;;;1.37;1.37;;;10.40;99.90;;;;;;10493795;28;20209;-78
2023/12/24 08:21:59;;;;;;;1.37;1.27;;;10.50;99.90;;;;;;10495550;28;20193;-79
2023/12/24 08:27:02;;;;;;;1.20;1.10;;;10.50;99.90;;;;;;10494798;28;20216;-79
2023/12/24 08:32:05;;;;;;;1.10;1.10;;;10.60;99.90;;;;;;10492668;28;20201;-79
2023/12/24 08:37:08;;;;;;;4.97;1.20;;;10.60;99.90;;;;;;10494454;28;20266;-79
2023/12/24 08:42:12;;;;;;;1.00;1.00;;;10.70;99.90;;;;;;10494287;28;20603;-79
2023/12/24 08:47:14;;;;;;;1.30;1.30;;;10.70;99.90;;;;;;10494897;28;20639;-79
2023/12/24 08:52:16;;;;;;;1.30;1.30;;;10.70;99.90;;;;;;10494237;28;20204;-79
2023/12/24 08:57:20;;;;;;;1.10;1.10;;;10.70;99.90;;;;;;10495643;28;20221;-79
2023/12/24 09:02:23;;;;;;;1.43;1.33;;;10.80;99.90;;;;;;10442637;28;20202;-79
2023/12/24 09:07:25;;;;;;;1.17;1.17;;;10.90;99.90;;;;;;10407444;28;20292;-79
2023/12/24 09:12:29;;;;;;;1.20;1.20;;;10.90;99.90;;;;;;10438735;28;20568;-81
2023/12/24 09:17:31;;;;;;;1.30;1.30;;;10.90;99.90;;;;;;10472636;28;20701;-80
2023/12/24 09:22:34;;;;;;;1.50;1.40;;;10.90;99.90;;;;;;10497682;28;20238;-80
2023/12/24 09:27:37;;;;;;;1.17;1.17;;;10.80;99.90;;;;;;10497726;28;20242;-80
2023/12/24 09:32:42;;;;;;;1.47;1.40;;;10.70;99.90;;;;;;10497928;28;20197;-80
2023/12/24 09:37:44;;;;;;;1.53;1.53;;;10.60;99.90;;;;;;10494721;28;20698;-80
2023/12/24 09:42:48;;;;;;;1.50;1.50;;;10.50;99.90;;;;;;10458534;28;20250;-81
2023/12/24 09:47:50;;;;;;;1.77;1.67;;;10.40;99.90;;;;;;10483682;28;20663;-80
2023/12/24 09:52:54;;;;;;;19.93;15.13;;;10.30;99.90;;;;;;10477579;28;20200;-80
2023/12/24 09:57:57;;;;;;;2.40;2.30;;;10.20;99.90;;;;;;10503924;28;20223;-80
2023/12/24 10:03:00;;;;;;;2.30;2.20;;;10.30;99.90;;;;;;10496492;28;20197;-80
2023/12/24 10:08:03;;;;;;;1.90;1.90;;;10.20;99.90;;;;;;10446857;28;20228;-80
2023/12/24 10:13:09;;;;;;;2.80;2.70;;;10.20;99.90;;;;;;10451029;28;20260;-79
2023/12/24 10:18:19;;;;;;;2.47;2.37;;;10.10;99.90;;;;;;10449031;28;20222;-79
2023/12/24 10:23:21;;;;;;;2.50;2.40;;;10.10;99.90;;;;;;10438238;28;20671;-79
2023/12/24 10:28:25;;;;;;;2.20;2.10;;;10.10;99.90;;;;;;10449789;28;20295;-79
2023/12/24 10:33:27;;;;;;;2.00;2.00;;;10.10;99.90;;;;;;10408204;28;20193;-78
2023/12/24 10:38:30;;;;;;;1.90;1.80;;;10.10;99.90;;;;;;10447760;28;20224;-78
2023/12/24 10:43:33;;;;;;;2.03;1.93;;;10.20;99.90;;;;;;10434982;28;20690;-79
2023/12/24 10:48:36;;;;;;;1.70;1.60;;;10.30;99.90;;;;;;10448138;28;20209;-79
2023/12/24 10:53:41;;;;;;;1.90;1.80;;;10.40;99.90;;;;;;10448797;28;20683;-79
2023/12/24 10:58:53;;;;;;;2.50;1.87;;;10.50;99.90;;;;;;10483987;28;20196;-80
2023/12/24 11:03:57;;;;;;;1.73;1.67;;;10.60;99.90;;;;;;10501719;28;20702;-80
2023/12/24 11:08:59;;;;;;;1.67;1.67;;;10.70;99.90;;;;;;10503051;28;20596;-80
2023/12/24 11:14:03;;;;;;;1.57;1.57;;;10.90;99.90;;;;;;10485306;28;20216;-80
2023/12/24 11:19:05;;;;;;;4.03;2.80;;;11.00;99.90;;;;;;10502090;28;20214;-80
2023/12/24 11:24:23;;;;;;;1.80;1.80;;;11.00;99.90;;;;;;10493160;28;20224;-80
2023/12/24 11:29:47;;;;;;;1.90;1.80;;;11.10;99.90;;;;;;10501976;28;20207;-79
2023/12/24 11:34:50;;;;;;;1.50;1.50;;;11.10;99.90;;;;;;10500892;28;20619;-79
2023/12/24 11:40:02;;;;;;;2.20;2.10;;;11.20;99.90;;;;;;10501114;28;20196;-80
2023/12/24 11:45:07;;;;;;;3.83;1.90;;;11.30;99.90;;;;;;10501596;28;20220;-80
2023/12/24 11:50:12;;;;;;;1.77;1.67;;;11.30;99.90;;;;;;10500099;28;20223;-80
2023/12/24 11:55:18;;;;;;;1.73;1.73;;;11.40;99.90;;;;;;10476554;28;20216;-80
2023/12/24 12:00:26;;;;;;;2.20;2.10;;;11.40;99.90;;;;;;10463630;28;20205;-81
2023/12/24 12:05:29;;;;;;;1.30;1.30;;;11.50;99.90;;;;;;10467409;28;20236;-80
2023/12/24 12:10:31;;;;;;;1.70;1.70;;;11.50;99.90;;;;;;10462944;28;20204;-80
2023/12/24 12:15:35;;;;;;;1.50;1.50;;;11.50;99.90;;;;;;10473349;28;20217;-80
2023/12/24 12:20:38;;;;;;;1.73;1.73;;;11.60;99.90;;;;;;10463301;28;20205;-79
2023/12/24 12:25:40;;;;;;;1.60;1.60;;;11.60;99.90;;;;;;10473061;28;20237;-79
2023/12/24 12:30:45;;;;;;;1.70;1.60;;;11.70;99.90;;;;;;10464249;28;20197;-79
2023/12/24 12:35:47;;;;;;;1.57;1.57;;;11.70;99.90;;;;;;10470219;28;20682;-79
2023/12/24 12:40:50;;;;;;;1.70;1.70;;;11.90;99.90;;;;;;10444546;28;20194;-79
2023/12/24 12:45:53;;;;;;;1.70;1.60;;;12.00;99.90;;;;;;10451552;28;20221;-79
2023/12/24 12:50:57;;;;;;;1.80;1.80;;;12.10;99.90;;;;;;10464346;28;20201;-79
2023/12/24 12:56:03;;;;;;;1.30;1.30;;;12.10;99.90;;;;;;10467406;28;20220;-80
2023/12/24 13:01:07;;;;;;;1.67;1.67;;;12.10;99.90;;;;;;10458753;28;20194;-80
2023/12/24 13:06:13;;;;;;;1.70;1.70;;;12.10;99.90;;;;;;10465819;28;20651;-80
2023/12/24 13:11:20;;;;;;;1.53;1.53;;;12.20;99.90;;;;;;10470899;28;20201;-80
2023/12/24 13:16:23;;;;;;;1.50;1.50;;;12.20;99.90;;;;;;10462845;28;20245;-80
2023/12/24 13:21:26;;;;;;;2.80;1.57;;;12.20;99.90;;;;;;10475089;28;20192;-80
2023/12/24 13:26:28;;;;;;;1.50;1.50;;;12.10;99.90;;;;;;10470232;28;20888;-80
2023/12/24 13:31:32;;;;;;;1.70;1.60;;;12.00;99.90;;;;;;10477164;28;20574;-80
2023/12/24 13:36:34;;;;;;;1.30;1.30;;;11.90;99.90;;;;;;10469334;28;20259;-80
2023/12/24 13:41:36;;;;;;;1.40;1.40;;;11.80;99.90;;;;;;10457735;28;20231;-80
2023/12/24 13:46:40;;;;;;;1.30;1.30;;;11.70;99.90;;;;;;10468373;28;20221;-80
2023/12/24 13:51:42;;;;;;;1.20;1.20;;;11.70;99.90;;;;;;10475796;28;20216;-81
2023/12/24 13:56:45;;;;;;;1.43;1.43;;;11.60;99.90;;;;;;10468089;28;20258;-80
2023/12/24 14:01:49;;;;;;;1.40;1.37;;;11.60;99.90;;;;;;10435964;28;20271;-79
2023/12/24 14:06:51;;;;;;;1.40;1.40;;;11.60;99.90;;;;;;10450101;28;20263;-79
2023/12/24 14:11:53;;;;;;;1.30;1.30;;;11.50;99.90;;;;;;10447044;28;20192;-78
2023/12/24 14:16:57;;;;;;;1.40;1.40;;;11.50;99.90;;;;;;10440368;28;20224;-81
2023/12/24 14:21:59;;;;;;;1.57;1.47;;;11.50;99.90;;;;;;10434358;28;20231;-80
2023/12/24 14:27:03;;;;;;;1.20;1.20;;;11.50;99.90;;;;;;10442391;28;20225;-78
2023/12/24 14:32:07;;;;;;;1.73;1.63;;;11.60;99.90;;;;;;10445024;28;20195;-78
2023/12/24 14:37:09;;;;;;;1.47;1.43;;;11.60;99.90;;;;;;10452470;28;20279;-79
2023/12/24 14:42:12;;;;;;;1.20;1.20;;;11.60;99.90;;;;;;10459921;28;20208;-79
2023/12/24 14:47:18;;;;;;;1.80;1.70;;;11.60;99.90;;;;;;10456510;28;20229;-78
2023/12/24 14:52:20;;;;;;;1.70;1.60;;;11.60;99.90;;;;;;10460337;28;20198;-80
2023/12/24 14:57:24;;;;;;;1.40;1.40;;;11.60;99.90;;;;;;10460472;28;20235;-80
2023/12/24 15:02:28;;;;;;;1.37;1.37;;;11.60;99.90;;;;;;10459845;28;20196;-80
2023/12/24 15:07:31;;;;;;;1.47;1.47;;;11.60;99.90;;;;;;10457872;28;20255;-80
2023/12/24 15:12:33;;;;;;;1.60;1.60;;;11.60;99.90;;;;;;10460174;28;20194;-79
2023/12/24 15:17:37;;;;;;;2.70;1.70;;;11.60;99.90;;;;;;10453550;28;20239;-80
2023/12/24 15:22:39;;;;;;;1.70;1.60;;;11.60;99.90;;;;;;10455448;28;21010;-80
2023/12/24 15:27:41;;;;;;;1.70;1.60;;;11.60;99.90;;;;;;10443325;28;20369;-80
2023/12/24 15:32:45;;;;;;;1.40;1.40;;;11.60;99.90;;;;;;10502162;28;20224;-80
2023/12/24 15:37:47;;;;;;;2.20;1.67;;;11.60;99.90;;;;;;10500040;28;20212;-79
2023/12/24 15:42:52;;;;;;;1.40;1.40;;;11.60;99.90;;;;;;10494838;28;20228;-78
2023/12/24 15:47:56;;;;;;;1.50;1.40;;;11.60;99.90;;;;;;10468922;28;20254;-78
2023/12/24 15:52:58;;;;;;;1.10;1.10;;;11.50;99.90;;;;;;10473473;28;20200;-79
2023/12/24 15:58:01;;;;;;;1.50;1.50;;;11.50;99.90;;;;;;10505175;28;20221;-79
2023/12/24 16:03:05;;;;;;;1.50;1.40;;;11.60;99.90;;;;;;10496913;28;20215;-79
2023/12/24 16:08:07;;;;;;;1.50;1.40;;;11.60;99.90;;;;;;10492606;28;20586;-79
2023/12/24 16:13:09;;;;;;;1.40;1.40;;;11.60;99.90;;;;;;10488349;28;20212;-79
2023/12/24 16:18:13;;;;;;;1.60;1.50;;;11.60;99.90;;;;;;10458851;28;20220;-79
2023/12/24 16:23:15;;;;;;;1.23;1.23;;;11.60;99.90;;;;;;10473138;28;20611;-79
2023/12/24 16:28:18;;;;;;;1.30;1.30;;;11.50;99.90;;;;;;10490204;28;20231;-79
2023/12/24 16:33:21;;;;;;;1.70;1.60;;;11.50;99.90;;;;;;10439219;28;20197;-79
2023/12/24 16:38:24;;;;;;;1.40;1.40;;;11.60;99.90;;;;;;10425045;28;20217;-79
2023/12/24 16:43:26;;;;;;;1.67;1.60;;;11.50;99.90;;;;;;10441798;28;20206;-78
2023/12/24 16:48:30;;;;;;;1.50;1.50;;;11.60;99.90;;;;;;10451983;28;20227;-79
2023/12/24 16:53:32;;;;;;;1.70;1.60;;;11.60;99.90;;;;;;10490429;28;20192;-78
2023/12/24 16:58:35;;;;;;;1.90;1.80;;;11.50;99.90;;;;;;10467703;28;20285;-78
2023/12/24 17:03:38;;;;;;;3.87;3.50;;;11.50;99.90;;;;;;10458458;28;20193;-78
2023/12/24 17:08:41;;;;;;;2.87;2.67;;;11.50;99.90;;;;;;10461126;28;20786;-78
2023/12/24 17:13:43;;;;;;;2.67;2.47;;;11.50;99.90;;;;;;10456820;28;20253;-79
2023/12/24 17:18:47;;;;;;;2.07;1.97;;;11.50;99.90;;;;;;10471708;28;20193;-78
2023/12/24 17:23:49;;;;;;;2.17;2.07;;;11.50;99.90;;;;;;10490035;28;20185;-78
2023/12/24 17:28:53;;;;;;;3.20;3.00;;;11.50;99.90;;;;;;10472484;28;20227;-79
2023/12/24 17:33:57;;;;;;;3.03;2.73;;;11.50;99.90;;;;;;10490418;28;20231;-78
2023/12/24 17:38:59;;;;;;;1.90;1.80;;;11.50;99.90;;;;;;10448350;28;20185;-78
2023/12/24 17:44:02;;;;;;;2.17;2.07;;;11.50;99.90;;;;;;10445082;28;20282;-78
2023/12/24 17:49:07;;;;;;;3.27;1.97;;;11.50;99.90;;;;;;10420008;28;20244;-79
2023/12/24 17:54:09;;;;;;;2.40;2.30;;;11.50;99.90;;;;;;10432423;28;20271;-79
2023/12/24 17:59:12;;;;;;;1.93;1.83;;;11.50;99.90;;;;;;10437109;28;20201;-78
2023/12/24 18:04:15;;;;;;;2.73;2.60;;;11.50;99.90;;;;;;10419061;28;20577;-78
2023/12/24 18:09:18;;;;;;;2.40;2.30;;;11.50;99.90;;;;;;10457756;28;20597;-79
2023/12/24 18:14:21;;;;;;;2.57;2.47;;;11.50;99.90;;;;;;10450995;28;20279;-79
2023/12/24 18:19:24;;;;;;;3.10;2.10;;;11.50;99.90;;;;;;10434517;28;20728;-79
2023/12/24 18:24:27;;;;;;;2.30;2.20;;;11.50;99.90;;;;;;10452916;28;20247;-79
2023/12/24 18:29:29;;;;;;;2.90;2.37;;;11.50;99.90;;;;;;10434357;28;20279;-79
2023/12/24 18:34:33;;;;;;;1.90;1.80;;;11.50;99.90;;;;;;10426990;28;20714;-79
2023/12/24 18:39:35;;;;;;;2.37;2.20;;;11.50;99.90;;;;;;10449875;28;20209;-79
2023/12/24 18:44:40;;;;;;;2.20;2.00;;;11.50;99.90;;;;;;10457779;28;20283;-81
2023/12/24 18:49:46;;;;;;;2.40;2.20;;;11.50;99.90;;;;;;10466651;28;20267;-80
2023/12/24 18:54:48;;;;;;;2.63;2.40;;;11.50;99.90;;;;;;10437303;28;20247;-81
2023/12/24 18:59:50;;;;;;;2.17;2.07;;;11.50;99.90;;;;;;10428289;28;20255;-80
2023/12/24 19:04:54;;;;;;;1.93;1.80;;;11.60;99.90;;;;;;10437874;28;20221;-80
2023/12/24 19:09:57;;;;;;;2.13;1.93;;;11.60;99.90;;;;;;10442301;28;20702;-80
2023/12/24 19:14:59;;;;;;;6.33;2.20;;;11.60;99.90;;;;;;10454915;28;20209;-80
2023/12/24 19:20:03;;;;;;;2.80;2.60;;;11.60;99.90;;;;;;10451443;28;20258;-80
2023/12/24 19:25:06;;;;;;;5.37;4.47;;;11.60;99.90;;;;;;10456074;28;20282;-80
2023/12/24 19:30:09;;;;;;;6.07;4.60;;;11.70;99.90;;;;;;10474115;28;20240;-79
2023/12/24 19:35:13;;;;;;;1.70;1.60;;;11.70;99.90;;;;;;10452401;28;20616;-80
2023/12/24 19:40:16;;;;;;;1.70;1.60;;;11.70;99.90;;;;;;10471872;28;20203;-79
2023/12/24 19:45:18;;;;;;;1.80;1.70;;;11.70;99.90;;;;;;10462064;28;20797;-80
2023/12/24 19:50:22;;;;;;;1.40;1.40;;;11.80;99.90;;;;;;10469883;28;20232;-80
2023/12/24 19:55:24;;;;;;;1.70;1.60;;;11.90;99.90;;;;;;10455392;28;20221;-80
2023/12/24 20:00:27;;;;;;;1.73;1.63;;;11.90;99.90;;;;;;10470329;28;20201;-80
2023/12/24 20:05:31;;;;;;;2.07;1.93;;;12.00;99.90;;;;;;10476519;28;20239;-79
2023/12/24 20:10:34;;;;;;;2.67;2.40;;;12.00;99.90;;;;;;10448739;28;20218;-80
2023/12/24 20:15:36;;;;;;;2.00;1.90;;;12.00;99.90;;;;;;10474189;28;20217;-80
2023/12/24 20:20:40;;;;;;;1.70;1.60;;;12.00;99.90;;;;;;10465293;28;20204;-80
2023/12/24 20:25:42;;;;;;;5.10;4.60;;;12.00;99.90;;;;;;10472578;28;20232;-80
2023/12/24 20:30:45;;;;;;;2.00;1.90;;;12.00;99.90;;;;;;10467267;28;20217;-79
2023/12/24 20:35:48;;;;;;;2.33;2.23;;;12.00;99.90;;;;;;10472940;28;20222;-80
2023/12/24 20:40:51;;;;;;;3.87;2.40;;;12.00;99.90;;;;;;10464316;28;20670;-79
2023/12/24 20:45:53;;;;;;;2.10;2.00;;;12.00;99.90;;;;;;10469675;28;20228;-79
2023/12/24 20:50:57;;;;;;;2.00;1.90;;;11.90;99.90;;;;;;10466346;28;20541;-80
2023/12/24 20:55:59;;;;;;;2.10;2.00;;;11.90;99.90;;;;;;10489661;28;20244;-79
2023/12/24 21:01:02;;;;;;;3.57;2.03;;;11.90;99.90;;;;;;10473980;28;20193;-79
2023/12/24 21:06:06;;;;;;;1.83;1.73;;;11.90;99.90;;;;;;10450283;28;20224;-79
2023/12/24 21:11:09;;;;;;;1.83;1.73;;;11.90;99.90;;;;;;10467442;28;20220;-79
2023/12/24 21:16:11;;;;;;;2.10;2.00;;;11.80;99.90;;;;;;10454581;28;20229;-79
2023/12/24 21:21:16;;;;;;;2.60;2.00;;;11.80;99.90;;;;;;10462179;28;20675;-80
2023/12/24 21:26:18;;;;;;;2.30;2.10;;;11.80;99.90;;;;;;10468397;28;20232;-80
2023/12/24 21:31:21;;;;;;;4.20;2.17;;;11.80;99.90;;;;;;10468982;28;20217;-79
2023/12/24 21:36:24;;;;;;;2.37;2.17;;;11.80;99.90;;;;;;10458465;28;20217;-80
2023/12/24 21:41:27;;;;;;;1.97;1.87;;;11.70;99.90;;;;;;10470529;28;20201;-80
2023/12/24 21:46:29;;;;;;;2.20;1.97;;;11.70;99.90;;;;;;10463594;28;20225;-80
2023/12/24 21:51:33;;;;;;;1.90;1.80;;;11.70;99.90;;;;;;10489342;28;20714;-80
2023/12/24 21:56:35;;;;;;;4.00;1.97;;;11.70;99.90;;;;;;10462350;28;20279;-80
2023/12/24 22:01:37;;;;;;;2.93;2.03;;;11.70;99.90;;;;;;10450618;28;20259;-79
2023/12/24 22:06:41;;;;;;;2.17;2.07;;;11.70;99.90;;;;;;10465280;28;20713;-79
2023/12/24 22:11:44;;;;;;;1.93;1.83;;;11.70;99.90;;;;;;10467408;28;20213;-80
2023/12/24 22:16:46;;;;;;;1.80;1.70;;;11.70;99.90;;;;;;10450337;28;20217;-79
2023/12/24 22:21:51;;;;;;;2.20;1.80;;;11.80;99.90;;;;;;10455721;28;20209;-79
2023/12/24 22:26:53;;;;;;;2.00;1.90;;;11.70;99.90;;;;;;10454109;28;20236;-80
2023/12/24 22:31:56;;;;;;;2.07;1.97;;;11.70;99.90;;;;;;10466098;28;20220;-80
2023/12/24 22:36:59;;;;;;;1.93;1.83;;;11.80;99.90;;;;;;10463505;28;20271;-81
2023/12/24 22:42:02;;;;;;;1.70;1.60;;;11.80;99.90;;;;;;10460107;28;20229;-80
2023/12/24 22:47:04;;;;;;;1.70;1.70;;;11.80;99.90;;;;;;10462216;28;20213;-79
2023/12/24 22:52:08;;;;;;;2.40;1.90;;;11.80;99.90;;;;;;10454895;28;20555;-80
2023/12/24 22:57:11;;;;;;;11.67;5.90;;;11.80;99.90;;;;;;10456005;28;20232;-80
2023/12/24 23:02:13;;;;;;;1.70;1.60;;;11.70;99.90;;;;;;10442081;28;20190;-80
2023/12/24 23:07:17;;;;;;;2.07;1.97;;;11.70;99.90;;;;;;10459982;28;20646;-81
2023/12/24 23:12:19;;;;;;;2.90;2.00;;;11.60;99.90;;;;;;10442457;28;20656;-79
2023/12/24 23:17:21;;;;;;;2.07;1.90;;;11.60;99.90;;;;;;10459397;28;20228;-80
2023/12/24 23:22:25;;;;;;;2.43;2.30;;;11.60;99.90;;;;;;10458313;28;20201;-80
2023/12/24 23:27:27;;;;;;;1.80;1.70;;;11.60;99.90;;;;;;10423156;28;1058100;-80
2023/12/24 23:32:30;;;;;;;1.67;1.67;;;11.60;99.90;;;;;;10469154;28;20475;-80
2023/12/24 23:37:33;;;;;;;1.83;1.77;;;11.60;99.90;;;;;;10460533;28;20236;-79
2023/12/24 23:42:36;;;;;;;2.10;2.00;;;11.60;99.90;;;;;;10458963;28;20266;-80
2023/12/24 23:47:38;;;;;;;2.20;1.80;;;11.50;99.90;;;;;;10444991;28;20860;-80
2023/12/24 23:52:42;;;;;;;2.03;1.93;;;11.50;99.90;;;;;;10468034;28;20233;-80
2023/12/24 23:57:44;;;;;;;2.43;1.97;;;11.50;99.90;;;;;;10458157;28;20690;-80
